Time;durP1;ratioP1;P1;durP2;ratioP2;P2;SDS_P1;SDS_P2;PMS_P1;PMS_P2;Temp;Humidity;BMP_temperature;BMP_pressure;BME280_temperature;BME280_humidity;BME280_pressure;Samples;Min_cycle;Max_cycle;Signal;HPM_P1;HPM_P2
2022/10/05 00:00:00;;;;;;;;;;;;;;;9.97;78.51;100554.84;4991669;28;1965;-69
2022/10/05 00:02:30;;;;;;;;;;;;;;;9.85;78.62;100555.13;4975515;28;1099;-69
2022/10/05 00:04:58;;;;;;;;;;;;;;;9.69;79.25;100569.16;4975451;28;1149;-69
2022/10/05 00:07:24;;;;;;;;;;;;;;;9.53;79.63;100564.63;4992902;28;842;-70
2022/10/05 00:09:56;;;;;;;;;;;;;;;9.40;80.27;100574.34;4992750;28;907;-69
2022/10/05 00:12:23;;;;;;;;;;;;;;;9.41;81.31;100570.44;4992831;28;830;-70
2022/10/05 00:14:54;;;;;;;;;;;;;;;9.44;81.11;100574.41;4975304;28;1569;-69
2022/10/05 00:17:26;;;;;;;;;;;;;;;9.44;81.23;100574.41;4975268;28;1091;-69
2022/10/05 00:19:53;;;;;;;;;;;;;;;9.46;80.85;100574.81;4992906;28;1882;-70
2022/10/05 00:22:29;;;;;;;;;;;;;;;9.46;81.04;100580.34;4975098;28;1189;-69
2022/10/05 00:24:58;;;;;;;;;;;;;;;9.43;81.06;100581.88;4992675;28;815;-70
2022/10/05 00:27:26;;;;;;;;;;;;;;;9.35;81.13;100583.75;4975140;28;1292;-69
2022/10/05 00:29:58;;;;;;;;;;;;;;;9.17;81.54;100586.28;4992759;28;869;-70
2022/10/05 00:32:25;;;;;;;;;;;;;;;9.00;82.21;100578.53;4992841;28;962;-70
2022/10/05 00:34:52;;;;;;;;;;;;;;;8.85;82.47;100579.50;4975038;28;1242;-69
2022/10/05 00:37:19;;;;;;;;;;;;;;;8.70;83.27;100593.06;4974887;28;1308;-69
2022/10/05 00:39:47;;;;;;;;;;;;;;;8.52;83.66;100586.50;4992450;28;1985;-70
2022/10/05 00:42:17;;;;;;;;;;;;;;;8.32;84.04;100588.50;4992120;28;1161;-70
2022/10/05 00:45:01;;;;;;;;;;;;;;;8.13;85.56;100584.66;4992289;28;841;-72
2022/10/05 00:47:28;;;;;;;;;;;;;;;8.01;86.30;100584.03;4974769;28;1413;-69
2022/10/05 00:50:04;;;;;;;;;;;;;;;7.88;86.31;100581.44;4974799;28;1404;-69
2022/10/05 00:52:49;;;;;;;;;;;;;;;7.89;86.74;100587.75;4974947;28;1287;-69
2022/10/05 00:55:15;;;;;;;;;;;;;;;7.85;86.79;100590.47;4975083;28;1119;-69
2022/10/05 00:57:52;;;;;;;;;;;;;;;7.77;87.68;100592.25;4992218;28;819;-69
2022/10/05 01:00:24;;;;;;;;;;;;;;;7.66;86.83;100596.78;4992023;28;1914;-69
2022/10/05 01:02:56;;;;;;;;;;;;;;;7.57;88.34;100598.94;4992109;28;913;-69
2022/10/05 01:05:23;;;;;;;;;;;;;;;7.50;88.32;100605.09;4992100;28;843;-68
2022/10/05 01:07:53;;;;;;;;;;;;;;;7.45;88.53;100607.34;4974693;28;1295;-69
2022/10/05 01:10:38;;;;;;;;;;;;;;;7.37;89.36;100611.91;4992013;28;886;-70
2022/10/05 01:13:23;;;;;;;;;;;;;;;7.33;89.19;100613.78;4974447;28;1501;-71
2022/10/05 01:16:08;;;;;;;;;;;;;;;7.26;89.53;100617.16;4974561;28;1170;-69
2022/10/05 01:18:52;;;;;;;;;;;;;;;7.21;89.20;100619.41;4992080;28;842;-70
2022/10/05 01:21:24;;;;;;;;;;;;;;;7.08;89.42;100615.97;4990983;28;1962;-70
2022/10/05 01:23:58;;;;;;;;;;;;;;;6.95;90.13;100618.03;4974529;28;1233;-69
2022/10/05 01:26:42;;;;;;;;;;;;;;;6.89;90.16;100617.53;4991937;28;831;-71
2022/10/05 01:29:23;;;;;;;;;;;;;;;6.87;90.18;100619.03;4991904;28;824;-70
2022/10/05 01:31:50;;;;;;;;;;;;;;;6.90;90.84;100629.31;4992093;28;904;-70
2022/10/05 01:34:27;;;;;;;;;;;;;;;6.91;90.85;100628.16;4994574;28;838;-69
2022/10/05 01:37:08;;;;;;;;;;;;;;;7.01;90.75;100627.59;4994327;28;1174;-69
2022/10/05 01:40:01;;;;;;;;;;;;;;;6.97;90.93;100625.94;4994640;28;1241;-69
2022/10/05 01:42:36;;;;;;;;;;;;;;;6.84;90.99;100631.53;4995551;28;823;-69
2022/10/05 01:45:21;;;;;;;;;;;;;;;6.78;92.08;100632.16;4995226;28;1357;-68
2022/10/05 01:47:48;;;;;;;;;;;;;;;6.85;92.31;100641.38;4996408;28;768;-69
2022/10/05 01:50:30;;;;;;;;;;;;;;;7.03;92.32;100635.50;4995854;28;894;-69
2022/10/05 01:52:58;;;;;;;;;;;;;;;7.25;92.24;100639.53;4977798;28;1384;-69
2022/10/05 01:55:34;;;;;;;;;;;;;;;7.28;92.00;100636.84;4995334;28;910;-71
2022/10/05 01:58:29;;;;;;;;;;;;;;;7.27;92.64;100637.22;4977667;28;1302;-69
2022/10/05 02:01:05;;;;;;;;;;;;;;;7.41;92.98;100633.97;4982361;28;1890;-69
2022/10/05 02:03:38;;;;;;;;;;;;;;;7.51;92.12;100638.88;4995215;28;811;-70
2022/10/05 02:06:12;;;;;;;;;;;;;;;7.55;91.93;100640.56;4978050;28;1361;-69
2022/10/05 02:09:01;;;;;;;;;;;;;;;7.60;91.81;100638.69;4995386;28;879;-69
2022/10/05 02:11:28;;;;;;;;;;;;;;;7.65;92.26;100647.44;4994974;28;810;-70
2022/10/05 02:14:01;;;;;;;;;;;;;;;8.05;93.11;100635.25;4977475;28;1205;-69
2022/10/05 02:16:33;;;;;;;;;;;;;;;8.52;91.63;100641.63;4977381;28;1322;-70
2022/10/05 02:19:04;;;;;;;;;;;;;;;8.67;91.04;100648.94;4994996;28;808;-69
2022/10/05 02:21:33;;;;;;;;;;;;;;;8.70;91.01;100644.66;4994963;28;1953;-68
2022/10/05 02:24:04;;;;;;;;;;;;;;;8.92;90.53;100646.59;4994844;28;870;-70
2022/10/05 02:26:34;;;;;;;;;;;;;;;9.25;89.97;100642.31;4994844;28;815;-71
2022/10/05 02:29:03;;;;;;;;;;;;;;;9.60;88.09;100643.97;4994998;28;874;-70
2022/10/05 02:32:00;;;;;;;;;;;;;;;9.84;86.13;100641.91;4994825;28;922;-72
2022/10/05 02:34:29;;;;;;;;;;;;;;;10.10;84.48;100652.84;4981457;28;1046;-70
2022/10/05 02:36:56;;;;;;;;;;;;;;;10.26;83.34;100651.78;4977436;28;1605;-71
2022/10/05 02:39:41;;;;;;;;;;;;;;;10.25;82.94;100651.00;4977059;28;1308;-69
2022/10/05 02:42:13;;;;;;;;;;;;;;;10.20;83.00;100654.91;4994361;28;906;-71
2022/10/05 02:45:03;;;;;;;;;;;;;;;10.21;82.71;100647.41;4993971;28;808;-71
2022/10/05 02:47:32;;;;;;;;;;;;;;;10.37;81.70;100650.78;4955547;29;1342;-71
2022/10/05 02:49:59;;;;;;;;;;;;;;;10.45;80.84;100648.06;4955897;28;871;-69
2022/10/05 02:52:30;;;;;;;;;;;;;;;10.50;80.40;100654.03;4955652;28;830;-70
2022/10/05 02:54:57;;;;;;;;;;;;;;;10.54;79.97;100649.34;4954284;29;1409;-69
2022/10/05 02:57:26;;;;;;;;;;;;;;;10.54;79.76;100640.25;4955506;28;847;-69
2022/10/05 02:59:57;;;;;;;;;;;;;;;10.61;79.55;100651.38;4954222;29;1956;-68
2022/10/05 03:02:29;;;;;;;;;;;;;;;10.77;78.70;100651.88;4955346;28;876;-69
2022/10/05 03:04:59;;;;;;;;;;;;;;;10.87;78.12;100653.16;4955463;28;799;-69
2022/10/05 03:10:31;;;;;;;;;;;;;;;11.19;75.85;100647.84;4955225;29;696;-68
2022/10/05 03:13:11;;;;;;;;;;;;;;;11.26;75.31;100646.28;4953859;29;1170;-69
2022/10/05 03:15:47;;;;;;;;;;;;;;;11.30;74.94;100649.88;4955541;28;812;-72
2022/10/05 03:18:25;;;;;;;;;;;;;;;11.33;74.94;100647.13;4955489;28;835;-70
2022/10/05 03:21:09;;;;;;;;;;;;;;;11.36;74.57;100654.66;4955166;28;1945;-69
2022/10/05 03:23:53;;;;;;;;;;;;;;;11.41;74.49;100646.00;4953740;29;1406;-71
2022/10/05 03:26:19;;;;;;;;;;;;;;;11.45;73.98;100646.78;4953804;29;898;-70
2022/10/05 03:28:56;;;;;;;;;;;;;;;11.56;73.36;100657.13;4954892;28;848;-70
2022/10/05 03:31:44;;;;;;;;;;;;;;;11.61;73.18;100654.00;4955156;28;1056;-70
2022/10/05 03:34:12;;;;;;;;;;;;;;;11.62;73.34;100652.81;4953777;29;868;-71
2022/10/05 03:36:47;;;;;;;;;;;;;;;11.61;72.92;100662.31;4954884;28;823;-71
2022/10/05 03:39:14;;;;;;;;;;;;;;;11.62;72.88;100664.66;4954675;28;858;-73
2022/10/05 03:44:54;;;;;;;;;;;;;;;11.57;73.11;100664.25;4952327;29;1240;-71
2022/10/05 03:47:20;;;;;;;;;;;;;;;11.59;72.52;100659.13;4954572;28;832;-69
2022/10/05 03:49:57;;;;;;;;;;;;;;;11.62;72.57;100661.09;4954639;28;804;-72
2022/10/05 03:52:27;;;;;;;;;;;;;;;11.69;72.35;100663.13;4955233;28;784;-72
2022/10/05 03:54:53;;;;;;;;;;;;;;;11.69;72.12;100660.34;4954470;28;847;-70
2022/10/05 03:57:27;;;;;;;;;;;;;;;11.71;71.64;100669.84;4953732;28;839;-71
2022/10/05 03:59:59;;;;;;;;;;;;;;;11.76;71.69;100668.69;4954214;28;1911;-70
2022/10/05 04:14:39;;;;;;;;;;;;;;;11.90;70.92;100688.16;4954438;29;618;-70
2022/10/05 04:29:28;;;;;;;;;;;;;;;11.98;70.74;100714.69;4954231;29;625;-71
2022/10/05 04:32:02;;;;;;;;;;;;;;;12.02;70.46;100715.50;4954045;28;926;-71
2022/10/05 04:37:36;;;;;;;;;;;;;;;12.14;69.91;100716.34;4953776;29;665;-70
2022/10/05 04:40:15;;;;;;;;;;;;;;;12.15;70.03;100720.72;4953583;28;1895;-71
2022/10/05 04:43:08;;;;;;;;;;;;;;;12.19;69.82;100715.97;4952356;29;946;-70
2022/10/05 04:48:50;;;;;;;;;;;;;;;12.45;68.66;100731.47;4911250;29;1298;-70
2022/10/05 04:54:52;;;;;;;;;;;;;;;12.72;67.45;100745.78;4913131;29;1135;-72
2022/10/05 05:00:22;;;;;;;;;;;;;;;12.98;66.58;100741.06;4913360;29;1919;-71
2022/10/05 05:34:00;;;;;;;;;;;;;;;13.77;62.46;100804.88;4987189;28;1416;-72
2022/10/05 05:36:48;;;;;;;;;;;;;;;13.87;62.08;100812.41;4995932;28;921;-70
2022/10/05 05:39:52;;;;;;;;;;;;;;;13.97;61.62;100814.34;4995585;28;1129;-70
2022/10/05 05:42:32;;;;;;;;;;;;;;;13.92;61.34;100820.31;4935644;29;1202;-70
2022/10/05 05:45:04;;;;;;;;;;;;;;;13.91;61.44;100829.84;4989232;28;1063;-71
2022/10/05 05:50:42;;;;;;;;;;;;;;;14.02;61.10;100827.06;4995567;28;653;-70
2022/10/05 05:53:15;;;;;;;;;;;;;;;13.92;61.97;100833.44;4995435;28;893;-69
2022/10/05 05:55:44;;;;;;;;;;;;;;;13.88;62.12;100825.88;4995403;28;790;-70
2022/10/05 06:01:26;;;;;;;;;;;;;;;13.95;62.35;100838.97;4995125;28;1898;-70
2022/10/05 06:04:04;;;;;;;;;;;;;;;14.01;62.03;100848.50;4994289;28;1379;-69
2022/10/05 06:06:33;;;;;;;;;;;;;;;14.09;61.91;100841.72;4994213;28;1184;-71
2022/10/05 06:09:02;;;;;;;;;;;;;;;14.22;61.71;100849.63;4995124;28;803;-70
2022/10/05 06:23:59;;;;;;;;;;;;;;;15.48;59.05;100855.31;4994863;28;700;-71
2022/10/05 06:26:46;;;;;;;;;;;;;;;15.54;57.66;100864.81;4994824;28;1070;-70
2022/10/05 06:29:21;;;;;;;;;;;;;;;15.36;58.13;100867.72;4994654;28;902;-72
2022/10/05 06:32:08;;;;;;;;;;;;;;;15.33;58.37;100863.00;4994793;28;899;-71
2022/10/05 06:34:38;;;;;;;;;;;;;;;15.37;57.88;100872.09;4994860;28;845;-71
2022/10/05 06:37:30;;;;;;;;;;;;;;;15.27;57.82;100865.41;4994676;28;870;-72
2022/10/05 06:39:56;;;;;;;;;;;;;;;15.22;58.00;100865.84;4966455;28;1963;-71
2022/10/05 06:54:32;;;;;;;;;;;;;;;15.54;56.35;100875.19;4994643;28;610;-71
2022/10/05 07:09:15;;;;;;;;;;;;;;;16.28;54.00;100872.88;4994340;28;613;-70
2022/10/05 07:11:42;;;;;;;;;;;;;;;16.60;52.78;100866.13;4994275;28;818;-70
2022/10/05 07:14:11;;;;;;;;;;;;;;;17.07;52.31;100877.47;4994161;28;811;-72
2022/10/05 07:29:11;;;;;;;;;;;;;;;16.80;51.50;100877.44;4993746;28;684;-70
2022/10/05 07:31:47;;;;;;;;;;;;;;;16.10;53.27;100873.84;4993448;28;1140;-70
2022/10/05 07:34:29;;;;;;;;;;;;;;;15.77;54.43;100880.97;4992016;28;1158;-71
2022/10/05 07:39:57;;;;;;;;;;;;;;;15.92;54.83;100890.78;4993787;28;668;-68
2022/10/05 07:42:43;;;;;;;;;;;;;;;16.11;54.52;100886.63;4993806;28;838;-70
2022/10/05 07:45:28;;;;;;;;;;;;;;;16.47;53.16;100889.00;4993422;28;874;-70
2022/10/05 07:48:00;;;;;;;;;;;;;;;16.50;53.05;100884.59;4993290;28;922;-70
2022/10/05 07:50:45;;;;;;;;;;;;;;;16.54;53.39;100882.56;4991930;28;1173;-69
2022/10/05 07:53:23;;;;;;;;;;;;;;;16.90;52.02;100888.50;4993426;28;846;-70
2022/10/05 07:58:58;;;;;;;;;;;;;;;17.29;49.67;100892.72;4993106;28;625;-70
2022/10/05 08:01:26;;;;;;;;;;;;;;;17.48;49.76;100887.66;4992907;28;1878;-69
2022/10/05 08:04:02;;;;;;;;;;;;;;;18.25;47.67;100892.31;4993040;28;823;-71
2022/10/05 08:06:34;;;;;;;;;;;;;;;18.84;46.07;100884.34;4991599;28;855;-72
2022/10/05 08:09:25;;;;;;;;;;;;;;;18.84;45.94;100879.53;4993021;28;1044;-70
2022/10/05 08:11:51;;;;;;;;;;;;;;;19.33;45.23;100878.81;4992880;28;988;-70
2022/10/05 08:26:43;;;;;;;;;;;;;;;19.08;45.53;100880.19;4992985;28;617;-70
2022/10/05 08:29:15;;;;;;;;;;;;;;;19.06;45.28;100882.66;4992693;28;811;-72
2022/10/05 08:32:10;;;;;;;;;;;;;;;19.22;45.08;100881.09;4992418;28;917;-72
2022/10/05 08:37:43;;;;;;;;;;;;;;;19.95;43.33;100879.69;4992482;28;614;-71
2022/10/05 08:43:17;;;;;;;;;;;;;;;20.31;42.86;100873.13;4982830;28;1022;-71
2022/10/05 08:46:16;;;;;;;;;;;;;;;20.46;42.37;100884.72;4992378;28;798;-71
2022/10/05 08:48:57;;;;;;;;;;;;;;;20.06;43.07;100887.81;4980433;28;1110;-69
2022/10/05 08:51:33;;;;;;;;;;;;;;;20.00;43.05;100883.97;4992303;28;799;-70
2022/10/05 09:06:25;;;;;;;;;;;;;;;19.59;43.48;100886.19;4992491;28;606;-69
2022/10/05 09:08:51;;;;;;;;;;;;;;;19.95;43.97;100878.88;4992311;28;823;-69
2022/10/05 09:11:22;;;;;;;;;;;;;;;20.27;42.52;100882.84;4992414;28;811;-69
2022/10/05 09:14:18;;;;;;;;;;;;;;;20.21;42.41;100881.84;4992082;28;803;-69
2022/10/05 09:26:11;;;;;;;;;;;;;;;20.29;40.34;100891.59;4992400;28;657;-69
2022/10/05 09:28:50;;;;;;;;;;;;;;;20.07;41.17;100897.81;4992766;28;1090;-69
2022/10/05 09:31:36;;;;;;;;;;;;;;;19.96;40.68;100892.47;4992017;28;1050;-71
2022/10/05 09:34:11;;;;;;;;;;;;;;;20.02;40.82;100887.13;4991637;28;1255;-70
2022/10/05 09:36:56;;;;;;;;;;;;;;;20.41;40.29;100890.88;4991979;28;783;-70
2022/10/05 09:39:53;;;;;;;;;;;;;;;20.40;39.58;100886.50;4991884;28;901;-70
2022/10/05 09:42:39;;;;;;;;;;;;;;;20.25;39.69;100891.72;4991821;28;1968;-69
2022/10/05 09:45:24;;;;;;;;;;;;;;;20.36;39.56;100891.44;4992567;28;772;-69
2022/10/05 09:48:17;;;;;;;;;;;;;;;20.15;39.54;100890.00;4991719;28;854;-69
2022/10/05 09:50:46;;;;;;;;;;;;;;;20.38;39.15;100883.34;4991944;28;815;-69
2022/10/05 09:53:13;;;;;;;;;;;;;;;20.47;39.13;100888.31;4991801;28;771;-69
2022/10/05 09:55:42;;;;;;;;;;;;;;;20.77;38.57;100890.66;4994855;28;815;-70
2022/10/05 09:58:28;;;;;;;;;;;;;;;21.09;37.66;100888.88;4995284;28;874;-70
2022/10/05 10:04:08;;;;;;;;;;;;;;;21.14;37.28;100885.50;4995250;28;621;-70
2022/10/05 10:06:53;;;;;;;;;;;;;;;20.96;37.50;100888.88;4993977;28;1284;-68
2022/10/05 10:09:20;;;;;;;;;;;;;;;21.31;37.30;100891.81;4995116;28;1000;-69
2022/10/05 10:12:13;;;;;;;;;;;;;;;21.40;36.85;100880.69;4995199;28;798;-70
2022/10/05 10:14:57;;;;;;;;;;;;;;;21.28;36.83;100877.88;4995078;28;819;-70
2022/10/05 10:17:35;;;;;;;;;;;;;;;21.20;36.59;100882.94;4994989;28;850;-69
2022/10/05 10:20:25;;;;;;;;;;;;;;;21.63;36.79;100877.97;4994957;28;1910;-70
2022/10/05 10:22:56;;;;;;;;;;;;;;;21.73;35.03;100880.41;4967294;28;1094;-69
2022/10/05 10:25:25;;;;;;;;;;;;;;;21.77;34.78;100880.31;4993587;28;1166;-68
2022/10/05 10:28:12;;;;;;;;;;;;;;;21.78;35.27;100879.03;4994834;28;862;-70
2022/10/05 10:30:50;;;;;;;;;;;;;;;22.02;35.07;100874.59;4993340;28;1265;-69
2022/10/05 10:33:38;;;;;;;;;;;;;;;22.21;34.44;100875.53;4994517;28;1437;-70
2022/10/05 10:36:17;;;;;;;;;;;;;;;21.92;34.76;100870.13;4994747;28;806;-69
2022/10/05 10:38:51;;;;;;;;;;;;;;;21.94;35.14;100869.66;4994640;28;804;-69
2022/10/05 10:41:28;;;;;;;;;;;;;;;22.28;35.21;100871.69;4994832;28;1911;-70
2022/10/05 10:44:04;;;;;;;;;;;;;;;22.48;33.72;100871.34;4994982;28;863;-69
2022/10/05 10:46:49;;;;;;;;;;;;;;;22.58;33.22;100869.41;4994576;28;905;-69
2022/10/05 10:49:34;;;;;;;;;;;;;;;22.67;32.40;100865.84;4994470;28;854;-68
2022/10/05 10:52:19;;;;;;;;;;;;;;;22.52;32.10;100869.19;4994334;28;871;-68
2022/10/05 10:54:57;;;;;;;;;;;;;;;22.68;31.56;100867.41;4994537;28;979;-70
2022/10/05 10:57:39;;;;;;;;;;;;;;;22.32;32.00;100863.09;4994200;28;841;-68
2022/10/05 11:00:24;;;;;;;;;;;;;;;22.16;31.78;100861.25;4994270;28;1933;-68
2022/10/05 11:03:26;;;;;;;;;;;;;;;22.31;31.54;100856.69;4994255;28;823;-68
2022/10/05 11:05:56;;;;;;;;;;;;;;;22.77;31.08;100854.16;4960639;28;1131;-68
2022/10/05 11:08:49;;;;;;;;;;;;;;;22.74;30.70;100846.59;4994540;28;803;-69
2022/10/05 11:11:38;;;;;;;;;;;;;;;22.60;30.27;100842.31;4971242;28;1209;-68
2022/10/05 11:14:22;;;;;;;;;;;;;;;22.79;30.94;100848.06;4994086;28;818;-68
2022/10/05 11:16:49;;;;;;;;;;;;;;;22.91;30.39;100844.34;4994126;28;802;-68
2022/10/05 11:19:19;;;;;;;;;;;;;;;23.02;30.20;100841.94;4994056;28;791;-68
2022/10/05 11:21:57;;;;;;;;;;;;;;;23.24;30.11;100838.25;4993846;28;1919;-69
2022/10/05 11:24:42;;;;;;;;;;;;;;;23.64;29.90;100826.06;4993776;28;795;-68
2022/10/05 11:27:19;;;;;;;;;;;;;;;23.79;28.73;100831.91;4993704;28;868;-68
2022/10/05 11:30:04;;;;;;;;;;;;;;;23.76;28.75;100822.34;4993922;28;826;-69
2022/10/05 11:32:49;;;;;;;;;;;;;;;23.73;28.57;100826.09;4993643;28;1223;-70
2022/10/05 11:35:37;;;;;;;;;;;;;;;23.52;28.03;100830.63;4993631;28;905;-69
2022/10/05 11:38:04;;;;;;;;;;;;;;;23.44;28.74;100827.31;4993778;28;889;-69
2022/10/05 11:40:33;;;;;;;;;;;;;;;23.63;29.08;100827.34;4993475;28;1956;-70
2022/10/05 11:43:23;;;;;;;;;;;;;;;23.76;29.03;100827.22;4993412;28;826;-69
2022/10/05 11:45:50;;;;;;;;;;;;;;;23.83;28.15;100822.06;4993547;28;878;-70
2022/10/05 11:48:19;;;;;;;;;;;;;;;23.68;28.51;100821.06;4992129;28;1423;-69
2022/10/05 11:50:55;;;;;;;;;;;;;;;23.47;28.25;100814.31;4993489;28;802;-70
2022/10/05 11:53:26;;;;;;;;;;;;;;;23.13;28.71;100807.66;4993368;28;823;-70
2022/10/05 11:56:08;;;;;;;;;;;;;;;22.91;29.03;100818.19;4993091;28;783;-70
2022/10/05 11:58:38;;;;;;;;;;;;;;;23.18;29.18;100809.84;4993143;28;873;-71
2022/10/05 12:01:20;;;;;;;;;;;;;;;23.68;28.01;100803.34;4993097;28;1949;-68
2022/10/05 12:03:54;;;;;;;;;;;;;;;24.28;27.68;100807.56;4993065;28;854;-70
2022/10/05 12:06:32;;;;;;;;;;;;;;;24.77;26.68;100798.03;4993016;28;807;-70
2022/10/05 12:09:07;;;;;;;;;;;;;;;24.57;26.13;100799.38;4992962;28;866;-70
2022/10/05 12:11:45;;;;;;;;;;;;;;;24.27;26.32;100806.78;4991636;28;1417;-69
2022/10/05 12:14:23;;;;;;;;;;;;;;;24.26;26.92;100799.59;4993216;28;795;-70
2022/10/05 12:16:54;;;;;;;;;;;;;;;24.72;26.40;100799.47;4992771;28;910;-70
2022/10/05 12:19:27;;;;;;;;;;;;;;;24.60;26.44;100804.09;4992166;28;898;-70
2022/10/05 12:22:14;;;;;;;;;;;;;;;24.73;26.74;100803.06;4991583;28;1886;-70
2022/10/05 12:24:43;;;;;;;;;;;;;;;25.00;26.20;100808.59;4993144;28;771;-69
2022/10/05 12:27:31;;;;;;;;;;;;;;;24.80;26.29;100799.91;4993054;28;819;-68
2022/10/05 12:30:15;;;;;;;;;;;;;;;24.66;26.34;100804.19;4993017;28;819;-69
2022/10/05 12:32:44;;;;;;;;;;;;;;;24.76;26.37;100810.63;4992662;28;1156;-70
2022/10/05 12:35:17;;;;;;;;;;;;;;;25.13;25.83;100805.56;4993305;28;807;-70
2022/10/05 12:37:55;;;;;;;;;;;;;;;25.22;25.31;100807.56;4992561;28;838;-69
2022/10/05 12:40:39;;;;;;;;;;;;;;;24.75;25.92;100800.56;4992440;28;1910;-69
2022/10/05 12:43:06;;;;;;;;;;;;;;;24.31;26.73;100801.78;4992603;28;815;-68
2022/10/05 12:45:32;;;;;;;;;;;;;;;24.21;26.59;100801.00;4992403;28;831;-69
2022/10/05 12:48:08;;;;;;;;;;;;;;;24.86;26.11;100786.72;4992429;28;819;-69
2022/10/05 12:50:55;;;;;;;;;;;;;;;25.21;26.00;100787.00;4992384;28;807;-69
2022/10/05 12:53:24;;;;;;;;;;;;;;;25.36;25.88;100794.78;4991308;28;1516;-70
2022/10/05 12:56:03;;;;;;;;;;;;;;;24.94;26.14;100795.59;4992412;28;808;-69
2022/10/05 12:58:45;;;;;;;;;;;;;;;24.75;26.64;100797.72;4992216;28;828;-70
2022/10/05 13:01:22;;;;;;;;;;;;;;;24.70;26.75;100796.34;4992387;28;1945;-69
2022/10/05 13:03:53;;;;;;;;;;;;;;;25.18;26.32;100790.78;4992218;28;831;-69
2022/10/05 13:06:37;;;;;;;;;;;;;;;24.81;26.47;100795.81;5007695;28;1367;-69
2022/10/05 13:09:17;;;;;;;;;;;;;;;24.58;26.94;100800.94;4992167;28;819;-69
2022/10/05 13:11:52;;;;;;;;;;;;;;;24.40;27.03;100793.25;4992147;28;838;-69
2022/10/05 13:14:21;;;;;;;;;;;;;;;23.70;27.90;100810.09;4992112;28;818;-68
2022/10/05 13:17:04;;;;;;;;;;;;;;;22.98;28.65;100803.81;4992055;28;880;-69
2022/10/05 13:19:33;;;;;;;;;;;;;;;23.40;28.93;100808.97;4992113;28;835;-69
2022/10/05 13:22:17;;;;;;;;;;;;;;;23.58;28.71;100808.22;4992070;28;1883;-68
2022/10/05 13:24:58;;;;;;;;;;;;;;;23.11;28.50;100809.34;4991924;28;893;-68
2022/10/05 13:27:28;;;;;;;;;;;;;;;23.29;28.84;100805.81;4992070;28;802;-68
2022/10/05 13:30:02;;;;;;;;;;;;;;;23.53;28.78;100806.78;4994101;28;870;-68
2022/10/05 13:32:47;;;;;;;;;;;;;;;24.61;28.05;100796.38;4995902;28;1199;-69
2022/10/05 13:35:31;;;;;;;;;;;;;;;25.30;26.98;100803.13;4995820;28;835;-68
2022/10/05 13:38:01;;;;;;;;;;;;;;;24.73;26.82;100803.88;4995810;28;847;-69
2022/10/05 13:40:48;;;;;;;;;;;;;;;24.58;26.94;100798.13;4995674;28;1974;-69
2022/10/05 13:43:25;;;;;;;;;;;;;;;24.23;26.80;100797.69;4995705;28;795;-69
2022/10/05 13:46:05;;;;;;;;;;;;;;;23.60;27.45;100806.50;4995659;28;847;-68
2022/10/05 13:48:51;;;;;;;;;;;;;;;23.54;27.95;100799.91;4995546;28;842;-69
2022/10/05 13:51:20;;;;;;;;;;;;;;;23.62;27.97;100789.09;4995528;28;827;-69
2022/10/05 13:54:03;;;;;;;;;;;;;;;23.42;28.14;100793.13;4995419;28;827;-69
2022/10/05 13:56:33;;;;;;;;;;;;;;;23.63;27.99;100796.31;4995482;28;843;-69
2022/10/05 13:58:59;;;;;;;;;;;;;;;24.17;27.89;100789.06;4995488;28;795;-69
2022/10/05 14:01:40;;;;;;;;;;;;;;;24.49;27.62;100800.97;4995245;28;1886;-68
2022/10/05 14:04:09;;;;;;;;;;;;;;;24.15;27.37;100796.44;4995556;28;854;-67
2022/10/05 14:06:37;;;;;;;;;;;;;;;23.97;27.76;100789.59;4995394;28;807;-68
2022/10/05 14:09:09;;;;;;;;;;;;;;;23.74;27.66;100796.63;4995312;28;831;-68
2022/10/05 14:11:39;;;;;;;;;;;;;;;23.57;28.00;100796.13;4995189;28;803;-69
2022/10/05 14:14:16;;;;;;;;;;;;;;;23.36;28.03;100799.88;4995171;28;859;-69
2022/10/05 14:16:51;;;;;;;;;;;;;;;23.13;28.10;100795.56;4995396;28;917;-69
2022/10/05 14:19:30;;;;;;;;;;;;;;;23.12;28.64;100794.81;4995036;28;791;-68
2022/10/05 14:22:11;;;;;;;;;;;;;;;22.89;28.59;100806.59;4995193;28;1890;-68
2022/10/05 14:24:45;;;;;;;;;;;;;;;21.77;30.04;100799.47;4994797;28;875;-69
2022/10/05 14:27:28;;;;;;;;;;;;;;;20.93;31.67;100804.69;4995186;28;889;-68
2022/10/05 14:29:55;;;;;;;;;;;;;;;21.51;31.50;100795.19;4994831;28;811;-68
2022/10/05 14:32:23;;;;;;;;;;;;;;;22.28;30.54;100806.16;4994828;28;1243;-68
2022/10/05 14:35:08;;;;;;;;;;;;;;;22.24;30.63;100809.09;4994723;28;799;-68
2022/10/05 14:37:55;;;;;;;;;;;;;;;21.98;30.70;100803.56;4994624;28;866;-70
2022/10/05 14:40:26;;;;;;;;;;;;;;;21.51;31.21;100800.81;4994153;28;1910;-68
2022/10/05 14:42:53;;;;;;;;;;;;;;;21.13;31.63;100804.47;4994280;28;871;-68
2022/10/05 14:45:19;;;;;;;;;;;;;;;20.74;32.37;100806.47;4994604;28;819;-69
2022/10/05 14:47:58;;;;;;;;;;;;;;;20.55;32.88;100814.66;4994488;28;838;-68
2022/10/05 14:50:28;;;;;;;;;;;;;;;20.58;32.82;100810.97;4994536;28;901;-68
2022/10/05 14:53:04;;;;;;;;;;;;;;;20.60;32.87;100807.72;4994379;28;894;-69
2022/10/05 14:55:37;;;;;;;;;;;;;;;20.64;33.22;100799.97;4994390;28;838;-69
2022/10/05 14:58:32;;;;;;;;;;;;;;;20.58;32.88;100807.38;4994307;28;854;-69
2022/10/05 15:01:02;;;;;;;;;;;;;;;20.52;33.29;100811.94;4994171;28;1886;-68
2022/10/05 15:03:45;;;;;;;;;;;;;;;20.47;33.59;100816.09;4994268;28;818;-68
2022/10/05 15:06:32;;;;;;;;;;;;;;;20.49;33.50;100822.03;4994523;28;885;-68
2022/10/05 15:09:07;;;;;;;;;;;;;;;20.53;33.65;100816.34;4994142;28;886;-69
2022/10/05 15:11:42;;;;;;;;;;;;;;;20.34;33.67;100830.09;4994091;28;798;-69
2022/10/05 15:14:30;;;;;;;;;;;;;;;19.92;33.92;100826.47;4993993;28;850;-68
2022/10/05 15:17:01;;;;;;;;;;;;;;;19.59;34.53;100834.94;4992584;28;1429;-68
2022/10/05 15:19:40;;;;;;;;;;;;;;;19.36;34.76;100833.09;4994043;28;799;-68
2022/10/05 15:22:06;;;;;;;;;;;;;;;19.17;35.41;100837.56;4993664;28;1949;-69
2022/10/05 15:24:44;;;;;;;;;;;;;;;18.92;36.97;100846.53;4993801;28;802;-68
2022/10/05 15:27:26;;;;;;;;;;;;;;;18.65;38.41;100841.91;4993845;28;803;-68
2022/10/05 15:29:54;;;;;;;;;;;;;;;18.45;39.34;100861.50;4992498;28;1261;-68
2022/10/05 15:32:40;;;;;;;;;;;;;;;18.30;39.93;100858.22;4993539;28;1275;-69
2022/10/05 15:35:10;;;;;;;;;;;;;;;18.02;41.26;100865.16;4993807;28;878;-69
2022/10/05 15:37:40;;;;;;;;;;;;;;;17.71;42.31;100867.31;4993590;28;796;-69
2022/10/05 15:40:16;;;;;;;;;;;;;;;17.43;43.52;100871.34;4993621;28;838;-68
2022/10/05 15:42:44;;;;;;;;;;;;;;;17.26;44.09;100876.81;4993494;28;807;-67
2022/10/05 15:45:19;;;;;;;;;;;;;;;17.14;44.75;100874.59;4993443;28;827;-68
2022/10/05 15:48:05;;;;;;;;;;;;;;;17.00;45.44;100881.16;4993420;28;803;-69
2022/10/05 15:50:41;;;;;;;;;;;;;;;16.90;45.95;100885.69;4993295;28;858;-68
2022/10/05 15:53:13;;;;;;;;;;;;;;;16.88;45.96;100888.13;4993134;28;870;-69
2022/10/05 15:55:42;;;;;;;;;;;;;;;16.83;46.14;100902.53;4993248;28;799;-69
2022/10/05 15:58:30;;;;;;;;;;;;;;;16.79;46.29;100900.97;4993100;28;838;-69
2022/10/05 16:01:19;;;;;;;;;;;;;;;16.73;46.77;100897.88;4993063;28;1949;-69
2022/10/05 16:03:49;;;;;;;;;;;;;;;16.63;47.29;100901.56;4981667;28;1301;-68
2022/10/05 16:09:27;;;;;;;;;;;;;;;16.42;47.73;100908.19;4971871;28;1293;-69
2022/10/05 16:11:59;;;;;;;;;;;;;;;16.34;48.04;100915.84;4991607;28;2171;-68
2022/10/05 16:14:34;;;;;;;;;;;;;;;16.22;48.52;100916.41;4993045;28;811;-68
2022/10/05 16:17:23;;;;;;;;;;;;;;;16.02;49.01;100918.97;4992826;28;791;-69
2022/10/05 16:20:13;;;;;;;;;;;;;;;15.78;49.50;100926.34;4992805;28;814;-68
2022/10/05 16:22:45;;;;;;;;;;;;;;;15.46;50.36;100932.94;4992764;28;835;-69
2022/10/05 16:25:17;;;;;;;;;;;;;;;15.22;50.68;100929.13;4992747;28;846;-68
2022/10/05 16:28:00;;;;;;;;;;;;;;;15.04;51.22;100926.41;4992751;28;815;-69
2022/10/05 16:30:29;;;;;;;;;;;;;;;14.83;52.30;100938.44;4992630;28;772;-69
2022/10/05 16:33:02;;;;;;;;;;;;;;;14.61;52.23;100938.53;4992561;28;1381;-69
2022/10/05 16:35:37;;;;;;;;;;;;;;;14.40;53.01;100938.56;4992594;28;819;-70
2022/10/05 16:38:26;;;;;;;;;;;;;;;14.17;53.68;100945.38;4992514;28;867;-69
2022/10/05 16:40:52;;;;;;;;;;;;;;;13.87;54.22;100937.47;4991490;28;1899;-70
2022/10/05 16:43:19;;;;;;;;;;;;;;;13.62;54.82;100938.25;4992427;28;807;-69